Share

Toomsboro, GA

2:27 AM EDT on April 25, 2014 (GMT -0400)
RAWS MILLEDGEVILLE GA US (MHRDG1) Elev 395 ft | 33.01 °N, 83.21 °W | Change Station

Current weather conditions updated 24 minutes ago

Clear
Clear
60 °F
Feels Like 60 °F
N
3
Wind Variable Wind from ESE
Gusts 5.0 mph
Sunrise 6:51 AM
Sunset 8:09 PM
Moon Waning Crescent

Today is forecast to be nearly the same temperature as yesterday.

Pressure 29.91 in
Visibility 10.0 miles
Clouds Clear
Dew Point 59 °F
Humidity 97%
Rainfall 0.00 in
Snow Depth Not available.
UV 0 out of 16
Pollen 7.80 out of 12
Air Quality Not available.
Flu Activity Sporadic
METAR KMLJ 250615Z AUTO 00000KT 10SM CLR 18/17 A2991 RMK AO2

More Conditions Fewer Conditions

Pressure 29.91 in
Visibility 10.0 miles
Clouds Clear
Dew Point 59 °F
Humidity 97%
Rainfall 0.00 in
Snow Depth Not available.
UV 0 out of 16
Pollen 7.80 out of 12
Air Quality Not available.
Flu Activity Sporadic
METAR KMLJ 250615Z AUTO 00000KT 10SM CLR 18/17 A2991 RMK AO2

More Conditions Fewer Conditions

10-Day Weather Forecast

Almanac

Astronomy

Apr. 25, 2014 Rise Set
Actual Time 6:51 AM EDT 8:09 PM EDT
Civil Twilight 6:25 AM EDT 8:35 PM EDT
Nautical Twilight 5:54 AM EDT 9:06 PM EDT
Astronomical Twilight 5:22 AM EDT 9:38 PM EDT
Moon 4:25 AM EDT 4:42 PM EDT
Length of Visible Light 14h 10m
Length of Day
13h 18m
Tomorrow will be 1m 48s longer.
Waning Crescent, 19% of the Moon is Illuminated
Today
Waning Crescent
Apr 29
New
May 6
First Quarter
May 14
Full
May 21
Last Quarter

Today's Extremes

State Highs State Lows

Community

  • Deer in evening light
    Deer in evening light
  • Critter
    Critter
  • Jone Runs Falls
    Jone Runs Falls
  • Easter in Shenandoah National Park
    Easter in Shenandoah National Park
  • Sunset at Apalachicola Bay, Florida
    Sunset at Apalachicola Bay, Florida

WunderPhotos

Upload Photos

1,704,867 photos uploaded!

WunderBlogs® & News

Nearby

Snow Depth

Station Depth Elevation
No new snow has been reported.

Coastal Water Temperatures

Place Temperature
No Stations Reporting

Earthquake Activity

City Distance Mag. Time & Date
No recent earthquake activity has been reported nearby.
Minimum magnitude displayed is 2.5.

Nearby Weather Stations

Station Location Temp. Dew Point Humidity Wind Precip. Elev Updated Type
RAWS MILLEDGEVILLE GA, Hardwick, GA 60 °F 59 °F 97% ESE  at  3 mph 0.00 in / hr 395 ft 2:03 AM EDT MADIS
East Baldwin County, Milledgeville, GA 61.2 °F 58 °F 90% SSE  at  0.0 mph 0.00 in / hr 390 ft 2:27 AM EDT Rapid Fire
Yard, Haddock, GA 58.7 °F 54 °F 85% North  at  0.0 mph 0.00 in / hr 472 ft 2:27 AM EDT Rapid Fire

Show More Stations Show Fewer Stations

What do you think?

We're not finished. Please let us know what you like, what you don't like, and what you are still missing.